Time,TemperatureF,DewpointF,PressureIn,WindDirection,WindDirectionDegrees,WindSpeedMPH,WindSpeedGustMPH,Humidity,HourlyPrecipIn,Conditions,Clouds,dailyrainin,SoftwareType,DateUTC
2013-10-05 00:00:00,50.1,47.3,29.68,NE,45,4.2,6.4,90,0.00,,,-99.99,VWS V12.07,2013-10-05 05:00:00,
2013-10-05 00:05:00,50.1,47.6,29.68,NE,45,0.0,4.2,91,0.00,,,-99.99,VWS V12.07,2013-10-05 05:05:00,
2013-10-05 00:10:00,50.1,47.6,29.67,NE,45,0.0,4.4,91,0.00,,,-99.99,VWS V12.07,2013-10-05 05:10:00,
2013-10-05 00:15:00,50.1,47.6,29.67,NE,45,3.5,4.4,91,0.00,,,-99.99,VWS V12.07,2013-10-05 05:15:00,
2013-10-05 00:20:00,50.1,47.6,29.66,ENE,68,8.9,8.9,91,0.00,,,-99.99,VWS V12.07,2013-10-05 05:20:00,
2013-10-05 00:25:00,50.0,47.5,29.66,ENE,68,0.0,8.9,91,0.00,,,-99.99,VWS V12.07,2013-10-05 05:25:00,
2013-10-05 00:30:00,49.8,47.3,29.65,NE,45,4.0,8.9,91,0.00,,,-99.99,VWS V12.07,2013-10-05 05:30:00,
2013-10-05 00:35:00,49.8,47.3,29.65,NE,45,0.0,4.0,91,0.00,,,-99.99,VWS V12.07,2013-10-05 05:35:00,
2013-10-05 00:40:00,49.8,47.3,29.64,NE,45,0.0,4.0,91,0.00,,,-99.99,VWS V12.07,2013-10-05 05:40:00,
2013-10-05 00:45:00,49.8,47.3,29.64,NE,45,0.0,4.6,91,0.00,,,-99.99,VWS V12.07,2013-10-05 05:45:00,
2013-10-05 00:50:00,49.8,47.3,29.63,NE,45,0.0,0.0,91,0.02,,,-99.99,VWS V12.07,2013-10-05 05:50:00,
2013-10-05 00:55:00,49.8,47.3,29.63,ENE,68,0.0,0.0,91,0.02,,,-99.99,VWS V12.07,2013-10-05 05:55:00,
2013-10-05 01:00:00,49.8,47.3,29.63,NE,45,0.0,4.2,91,0.02,,,-99.99,VWS V12.07,2013-10-05 06:00:00,
2013-10-05 01:05:00,49.8,47.3,29.63,NE,45,0.0,0.0,91,0.02,,,-99.99,VWS V12.07,2013-10-05 06:05:00,
2013-10-05 01:10:00,49.8,47.3,29.62,NE,45,0.0,4.4,91,0.02,,,-99.99,VWS V12.07,2013-10-05 06:10:00,
2013-10-05 01:15:00,49.8,47.3,29.63,NE,45,0.0,4.4,91,0.02,,,-99.99,VWS V12.07,2013-10-05 06:15:00,
2013-10-05 01:20:00,49.6,47.4,29.62,NE,45,0.0,0.0,92,0.02,,,-99.99,VWS V12.07,2013-10-05 06:20:00,
2013-10-05 01:25:00,49.6,47.4,29.62,NE,45,0.0,0.0,92,0.02,,,-99.99,VWS V12.07,2013-10-05 06:25:00,
2013-10-05 01:30:00,49.6,47.4,29.63,NE,45,0.0,0.0,92,0.02,,,-99.99,VWS V12.07,2013-10-05 06:30:00,
2013-10-05 01:35:00,49.6,47.4,29.63,NE,45,0.0,0.0,92,0.02,,,-99.99,VWS V12.07,2013-10-05 06:35:00,
2013-10-05 01:40:00,49.6,47.4,29.63,NE,45,0.0,0.0,92,0.02,,,-99.99,VWS V12.07,2013-10-05 06:40:00,
2013-10-05 01:45:00,49.8,47.6,29.63,NE,45,0.0,5.5,92,0.02,,,-99.99,VWS V12.07,2013-10-05 06:45:00,
2013-10-05 01:50:00,49.8,47.6,29.63,NE,45,0.0,0.0,92,0.00,,,-99.99,VWS V12.07,2013-10-05 06:50:00,
2013-10-05 01:55:00,49.8,47.6,29.63,NE,45,2.4,2.4,92,0.00,,,-99.99,VWS V12.07,2013-10-05 06:55:00,
2013-10-05 02:00:00,49.8,47.6,29.63,ENE,68,0.0,2.4,92,0.00,,,-99.99,VWS V12.07,2013-10-05 07:00:00,
2013-10-05 02:05:00,49.8,47.6,29.65,ENE,68,0.0,0.0,92,0.00,,,-99.99,VWS V12.07,2013-10-05 07:05:00,
2013-10-05 02:10:00,49.8,47.6,29.65,ENE,68,0.0,0.0,92,0.00,,,-99.99,VWS V12.07,2013-10-05 07:10:00,
2013-10-05 02:15:00,49.8,47.6,29.64,ENE,68,0.0,1.3,92,0.04,,,-99.99,VWS V12.07,2013-10-05 07:15:00,
2013-10-05 02:20:00,49.8,47.6,29.64,ENE,68,0.0,0.0,92,0.04,,,-99.99,VWS V12.07,2013-10-05 07:20:00,
2013-10-05 02:25:00,49.8,47.6,29.64,ENE,68,0.0,0.0,92,0.04,,,-99.99,VWS V12.07,2013-10-05 07:25:00,
2013-10-05 02:30:00,49.8,47.6,29.63,NE,45,0.0,0.0,92,0.06,,,-99.99,VWS V12.07,2013-10-05 07:30:00,
2013-10-05 02:35:00,49.8,47.6,29.63,NE,45,0.0,0.0,92,0.06,,,-99.99,VWS V12.07,2013-10-05 07:35:00,
2013-10-05 02:40:00,49.8,47.6,29.62,NE,45,0.0,0.0,92,0.06,,,-99.99,VWS V12.07,2013-10-05 07:40:00,
2013-10-05 02:45:00,49.8,47.6,29.62,NE,45,0.0,1.1,92,0.06,,,-99.99,VWS V12.07,2013-10-05 07:45:00,
2013-10-05 02:50:00,49.8,47.6,29.62,NE,45,0.0,0.0,92,0.06,,,-99.99,VWS V12.07,2013-10-05 07:50:00,
2013-10-05 02:55:00,49.8,47.6,29.62,NE,45,0.0,8.7,92,0.06,,,-99.99,VWS V12.07,2013-10-05 07:55:00,
2013-10-05 03:00:00,49.8,47.6,29.64,NE,45,0.0,8.7,92,0.08,,,-99.99,VWS V12.07,2013-10-05 08:00:00,
2013-10-05 03:05:00,50.0,47.8,29.64,NE,45,0.0,0.0,92,0.08,,,-99.99,VWS V12.07,2013-10-05 08:05:00,
2013-10-05 03:10:00,50.0,47.8,29.64,NE,45,0.0,0.0,92,0.04,,,-99.99,VWS V12.07,2013-10-05 08:10:00,
2013-10-05 03:15:00,49.8,47.6,29.63,NE,45,0.0,0.0,92,0.04,,,-99.99,VWS V12.07,2013-10-05 08:15:00,
2013-10-05 03:20:00,49.8,47.6,29.62,NE,45,0.0,0.0,92,0.04,,,-99.99,VWS V12.07,2013-10-05 08:20:00,
2013-10-05 03:25:00,50.0,47.8,29.62,NE,45,0.0,0.0,92,0.04,,,-99.99,VWS V12.07,2013-10-05 08:25:00,
2013-10-05 03:30:00,50.1,47.9,29.61,NE,45,0.0,0.0,92,0.02,,,-99.99,VWS V12.07,2013-10-05 08:30:00,
2013-10-05 03:35:00,50.1,47.9,29.61,NE,45,0.0,0.0,92,0.04,,,-99.99,VWS V12.07,2013-10-05 08:35:00,
2013-10-05 03:40:00,50.1,47.9,29.61,NNE,22,0.0,0.0,92,0.04,,,-99.99,VWS V12.07,2013-10-05 08:40:00,
2013-10-05 03:45:00,50.1,47.9,29.61,NE,45,0.0,0.0,92,0.04,,,-99.99,VWS V12.07,2013-10-05 08:45:00,
2013-10-05 03:50:00,50.1,47.9,29.61,NE,45,0.0,1.3,92,0.04,,,-99.99,VWS V12.07,2013-10-05 08:50:00,
2013-10-05 03:55:00,50.1,47.9,29.60,NE,45,1.3,1.3,92,0.02,,,-99.99,VWS V12.07,2013-10-05 08:55:00,
2013-10-05 04:00:00,50.1,47.9,29.60,NE,45,0.0,1.3,92,0.04,,,-99.99,VWS V12.07,2013-10-05 09:00:00,
2013-10-05 04:05:00,50.1,47.9,29.60,NNE,22,0.0,0.0,92,0.04,,,-99.99,VWS V12.07,2013-10-05 09:05:00,
2013-10-05 04:10:00,50.0,47.8,29.61,NE,45,0.0,0.0,92,0.04,,,-99.99,VWS V12.07,2013-10-05 09:10:00,
2013-10-05 04:15:00,50.1,47.9,29.60,NE,45,0.0,0.0,92,0.04,,,-99.99,VWS V12.07,2013-10-05 09:15:00,
2013-10-05 04:20:00,50.0,47.8,29.60,NE,45,0.0,2.9,92,0.04,,,-99.99,VWS V12.07,2013-10-05 09:20:00,
2013-10-05 04:25:00,49.8,47.6,29.61,NE,45,0.0,6.4,92,0.06,,,-99.99,VWS V12.07,2013-10-05 09:25:00,
2013-10-05 04:30:00,49.8,47.6,29.61,NE,45,0.0,6.4,92,0.04,,,-99.99,VWS V12.07,2013-10-05 09:30:00,
2013-10-05 04:35:00,49.8,47.6,29.62,NE,45,0.0,0.0,92,0.06,,,-99.99,VWS V12.07,2013-10-05 09:35:00,
2013-10-05 04:40:00,49.8,47.6,29.61,NE,45,0.0,0.0,92,0.06,,,-99.99,VWS V12.07,2013-10-05 09:40:00,
2013-10-05 04:45:00,49.8,47.6,29.61,NE,45,0.0,0.0,92,0.06,,,-99.99,VWS V12.07,2013-10-05 09:45:00,
2013-10-05 04:50:00,49.8,47.6,29.61,NE,45,0.0,0.0,92,0.06,,,-99.99,VWS V12.07,2013-10-05 09:50:00,
2013-10-05 04:55:00,49.8,47.6,29.60,NE,45,0.0,0.0,92,0.04,,,-99.99,VWS V12.07,2013-10-05 09:55:00,
2013-10-05 05:00:00,49.8,47.6,29.59,NE,45,5.1,5.1,92,0.06,,,-99.99,VWS V12.07,2013-10-05 10:00:00,
2013-10-05 05:05:00,49.8,47.6,29.58,NE,45,0.0,0.0,92,0.10,,,-99.99,VWS V12.07,2013-10-05 10:05:00,
2013-10-05 05:10:00,49.8,47.6,29.57,ENE,68,1.7,1.7,92,0.10,,,-99.99,VWS V12.07,2013-10-05 10:10:00,
2013-10-05 05:15:00,49.8,47.6,29.57,ENE,68,4.9,4.9,92,0.12,,,-99.99,VWS V12.07,2013-10-05 10:15:00,
2013-10-05 05:20:00,49.8,47.6,29.58,ENE,68,0.0,2.9,92,0.14,,,-99.99,VWS V12.07,2013-10-05 10:20:00,
2013-10-05 05:25:00,49.8,47.6,29.58,ENE,68,2.9,2.9,92,0.14,,,-99.99,VWS V12.07,2013-10-05 10:25:00,
2013-10-05 05:30:00,49.8,47.6,29.58,ENE,68,1.1,2.9,92,0.12,,,-99.99,VWS V12.07,2013-10-05 10:30:00,
2013-10-05 05:35:00,49.8,47.6,29.57,ENE,68,0.0,0.0,92,0.12,,,-99.99,VWS V12.07,2013-10-05 10:35:00,
2013-10-05 05:40:00,49.8,47.6,29.56,ENE,68,0.0,1.3,92,0.14,,,-99.99,VWS V12.07,2013-10-05 10:40:00,
2013-10-05 05:45:00,49.8,47.6,29.55,ENE,68,3.8,5.8,92,0.14,,,-99.99,VWS V12.07,2013-10-05 10:45:00,
2013-10-05 05:50:00,49.8,47.6,29.53,NNE,22,0.0,3.8,92,0.16,,,-99.99,VWS V12.07,2013-10-05 10:50:00,
2013-10-05 05:55:00,49.8,47.6,29.54,ENE,68,0.0,3.8,92,0.14,,,-99.99,VWS V12.07,2013-10-05 10:55:00,
2013-10-05 06:00:00,49.8,47.9,29.55,NE,45,0.0,3.8,93,0.14,,,-99.99,VWS V12.07,2013-10-05 11:00:00,
2013-10-05 06:05:00,49.8,47.9,29.55,ENE,68,0.0,4.2,93,0.10,,,-99.99,VWS V12.07,2013-10-05 11:05:00,
2013-10-05 06:10:00,49.8,47.9,29.55,ENE,68,4.6,4.6,93,0.08,,,-99.99,VWS V12.07,2013-10-05 11:10:00,
2013-10-05 06:15:00,49.8,47.9,29.55,NE,45,0.0,4.6,93,0.08,,,-99.99,VWS V12.07,2013-10-05 11:15:00,
2013-10-05 06:20:00,49.8,47.9,29.56,NE,45,0.0,3.8,93,0.06,,,-99.99,VWS V12.07,2013-10-05 11:20:00,
2013-10-05 06:25:00,49.8,47.9,29.56,NE,45,0.0,4.0,93,0.04,,,-99.99,VWS V12.07,2013-10-05 11:25:00,
2013-10-05 06:30:00,49.8,47.9,29.56,NE,45,0.6,4.0,93,0.04,,,-99.99,VWS V12.07,2013-10-05 11:30:00,
2013-10-05 06:35:00,49.8,47.9,29.57,NE,45,0.0,0.6,93,0.04,,,-99.99,VWS V12.07,2013-10-05 11:35:00,
2013-10-05 06:40:00,49.8,47.9,29.56,NE,45,0.0,0.6,93,0.02,,,-99.99,VWS V12.07,2013-10-05 11:40:00,
2013-10-05 06:45:00,49.8,47.9,29.56,NE,45,3.3,3.3,93,0.00,,,-99.99,VWS V12.07,2013-10-05 11:45:00,
2013-10-05 06:50:00,49.8,47.9,29.56,NE,45,0.0,0.0,93,0.00,,,-99.99,VWS V12.07,2013-10-05 11:50:00,
2013-10-05 06:55:00,49.8,47.9,29.56,ENE,68,2.2,2.2,93,0.00,,,-99.99,VWS V12.07,2013-10-05 11:55:00,
2013-10-05 07:00:00,49.8,47.9,29.55,NE,45,0.0,2.2,93,0.00,,,-99.99,VWS V12.07,2013-10-05 12:00:00,
2013-10-05 07:05:00,49.8,47.9,29.55,SE,135,0.0,0.0,93,0.00,,,-99.99,VWS V12.07,2013-10-05 12:05:00,
2013-10-05 07:10:00,49.8,47.9,29.55,ENE,68,0.0,0.0,93,0.00,,,-99.99,VWS V12.07,2013-10-05 12:10:00,
2013-10-05 07:15:00,49.8,47.9,29.56,NE,45,0.0,2.2,93,0.00,,,-99.99,VWS V12.07,2013-10-05 12:15:00,
2013-10-05 07:20:00,49.8,47.9,29.56,ENE,68,0.0,0.0,93,0.00,,,-99.99,VWS V12.07,2013-10-05 12:20:00,
2013-10-05 07:25:00,49.8,47.9,29.57,NE,45,2.4,2.4,93,0.00,,,-99.99,VWS V12.07,2013-10-05 12:25:00,
2013-10-05 07:30:00,49.8,47.9,29.57,ENE,68,4.6,4.6,93,0.00,,,-99.99,VWS V12.07,2013-10-05 12:30:00,
2013-10-05 07:35:00,49.8,47.9,29.57,ENE,68,0.0,11.1,93,0.00,,,-99.99,VWS V12.07,2013-10-05 12:35:00,
2013-10-05 07:40:00,49.8,47.9,29.57,NE,45,0.0,11.1,93,0.00,,,-99.99,VWS V12.07,2013-10-05 12:40:00,
2013-10-05 07:45:00,49.8,47.9,29.56,ESE,112,0.0,11.1,93,0.00,,,-99.99,VWS V12.07,2013-10-05 12:45:00,
2013-10-05 07:50:00,49.8,47.9,29.56,ENE,68,0.0,0.0,93,0.00,,,-99.99,VWS V12.07,2013-10-05 12:50:00,
2013-10-05 07:55:00,50.0,48.1,29.57,NE,45,6.0,6.0,93,0.00,,,-99.99,VWS V12.07,2013-10-05 12:55:00,
2013-10-05 08:00:00,50.0,48.1,29.56,ENE,68,0.0,6.0,93,0.00,,,-99.99,VWS V12.07,2013-10-05 13:00:00,
2013-10-05 08:05:00,50.1,48.2,29.56,NE,45,0.0,0.0,93,0.00,,,-99.99,VWS V12.07,2013-10-05 13:05:00,
2013-10-05 08:10:00,50.1,48.2,29.55,NNE,22,1.1,1.1,93,0.00,,,-99.99,VWS V12.07,2013-10-05 13:10:00,
2013-10-05 08:15:00,50.1,48.2,29.55,NE,45,0.0,1.1,93,0.00,,,-99.99,VWS V12.07,2013-10-05 13:15:00,
2013-10-05 08:20:00,50.1,48.2,29.55,NE,45,2.2,2.2,93,0.00,,,-99.99,VWS V12.07,2013-10-05 13:20:00,
2013-10-05 08:25:00,50.1,48.2,29.55,ENE,68,0.0,2.2,93,0.00,,,-99.99,VWS V12.07,2013-10-05 13:25:00,
2013-10-05 08:35:00,50.1,48.2,29.54,NE,45,0.8,2.6,93,0.00,,,-99.99,VWS V12.07,2013-10-05 13:35:00,
2013-10-05 08:40:00,50.3,48.4,29.54,NE,45,3.5,3.5,93,0.00,,,-99.99,VWS V12.07,2013-10-05 13:40:00,
2013-10-05 08:45:00,50.3,48.4,29.53,ENE,68,5.1,5.1,93,0.00,,,-99.99,VWS V12.07,2013-10-05 13:45:00,
2013-10-05 08:50:00,50.3,48.4,29.53,NE,45,0.0,7.3,93,0.00,,,-99.99,VWS V12.07,2013-10-05 13:50:00,
2013-10-05 08:55:00,50.3,48.4,29.53,ENE,68,0.0,9.3,93,0.00,,,-99.99,VWS V12.07,2013-10-05 13:55:00,
2013-10-05 09:00:00,50.3,48.4,29.52,ENE,68,1.7,9.3,93,0.00,,,-99.99,VWS V12.07,2013-10-05 14:00:00,
2013-10-05 09:05:00,50.3,48.4,29.52,ENE,68,0.0,1.7,93,0.00,,,-99.99,VWS V12.07,2013-10-05 14:05:00,
2013-10-05 09:10:00,50.3,48.4,29.53,ENE,68,0.0,1.7,93,0.00,,,-99.99,VWS V12.07,2013-10-05 14:10:00,
2013-10-05 09:15:00,50.5,48.6,29.54,ENE,68,0.0,1.7,93,0.00,,,-99.99,VWS V12.07,2013-10-05 14:15:00,
2013-10-05 09:20:00,50.5,48.6,29.54,ENE,68,0.0,3.8,93,0.00,,,-99.99,VWS V12.07,2013-10-05 14:20:00,
2013-10-05 09:25:00,50.7,48.8,29.55,ENE,68,0.0,3.8,93,0.00,,,-99.99,VWS V12.07,2013-10-05 14:25:00,
2013-10-05 09:30:00,50.7,48.8,29.55,ENE,68,0.0,3.8,93,0.00,,,-99.99,VWS V12.07,2013-10-05 14:30:00,
2013-10-05 09:35:00,50.7,48.8,29.56,NE,45,0.0,3.5,93,0.00,,,-99.99,VWS V12.07,2013-10-05 14:35:00,
2013-10-05 09:40:00,50.7,48.8,29.56,ENE,68,0.0,3.5,93,0.00,,,-99.99,VWS V12.07,2013-10-05 14:40:00,
2013-10-05 09:45:00,50.7,48.8,29.56,ESE,112,0.0,3.5,93,0.00,,,-99.99,VWS V12.07,2013-10-05 14:45:00,
2013-10-05 09:50:00,50.9,49.0,29.56,NE,45,0.0,0.0,93,0.00,,,-99.99,VWS V12.07,2013-10-05 14:50:00,
2013-10-05 09:55:00,50.9,49.0,29.56,NE,45,1.7,1.7,93,0.00,,,-99.99,VWS V12.07,2013-10-05 14:55:00,
2013-10-05 10:00:00,50.9,49.0,29.55,NE,45,3.3,3.3,93,0.00,,,-99.99,VWS V12.07,2013-10-05 15:00:00,
2013-10-05 10:05:00,51.0,49.0,29.56,NE,45,1.3,1.3,93,0.00,,,-99.99,VWS V12.07,2013-10-05 15:05:00,
2013-10-05 10:10:00,51.0,49.0,29.56,NE,45,0.0,1.3,93,0.00,,,-99.99,VWS V12.07,2013-10-05 15:10:00,
2013-10-05 10:15:00,51.0,49.0,29.57,NE,45,0.0,1.3,93,0.00,,,-99.99,VWS V12.07,2013-10-05 15:15:00,
2013-10-05 10:20:00,51.0,49.0,29.57,NE,45,0.0,0.0,93,0.00,,,-99.99,VWS V12.07,2013-10-05 15:20:00,
2013-10-05 10:25:00,51.0,49.0,29.57,NE,45,0.0,0.0,93,0.00,,,-99.99,VWS V12.07,2013-10-05 15:25:00,
2013-10-05 10:30:00,51.0,49.0,29.57,NE,45,0.0,0.0,93,0.00,,,-99.99,VWS V12.07,2013-10-05 15:30:00,
2013-10-05 10:35:00,51.2,49.2,29.57,NE,45,0.0,0.0,93,0.00,,,-99.99,VWS V12.07,2013-10-05 15:35:00,
2013-10-05 10:40:00,51.2,49.2,29.58,NE,45,0.0,0.0,93,0.00,,,-99.99,VWS V12.07,2013-10-05 15:40:00,
2013-10-05 10:45:00,51.2,49.2,29.59,NE,45,0.0,0.0,93,0.00,,,-99.99,VWS V12.07,2013-10-05 15:45:00,
2013-10-05 10:50:00,51.2,49.2,29.60,NE,45,0.0,2.9,93,0.00,,,-99.99,VWS V12.07,2013-10-05 15:50:00,
2013-10-05 10:55:00,51.2,49.2,29.59,NE,45,0.0,2.9,93,0.02,,,-99.99,VWS V12.07,2013-10-05 15:55:00,
2013-10-05 11:00:00,51.2,49.2,29.57,NE,45,2.9,2.9,93,0.04,,,-99.99,VWS V12.07,2013-10-05 16:00:00,
2013-10-05 11:05:00,51.2,49.2,29.57,NE,45,2.6,5.5,93,0.06,,,-99.99,VWS V12.07,2013-10-05 16:05:00,
2013-10-05 11:10:00,51.4,49.5,29.57,NE,45,0.0,5.5,93,0.06,,,-99.99,VWS V12.07,2013-10-05 16:10:00,
2013-10-05 11:15:00,51.4,49.5,29.56,NE,45,2.4,5.5,93,0.06,,,-99.99,VWS V12.07,2013-10-05 16:15:00,
2013-10-05 11:20:00,51.2,49.2,29.56,NE,45,0.0,4.4,93,0.06,,,-99.99,VWS V12.07,2013-10-05 16:20:00,
2013-10-05 11:25:00,51.4,49.5,29.55,NE,45,3.3,4.4,93,0.06,,,-99.99,VWS V12.07,2013-10-05 16:25:00,
2013-10-05 11:30:00,51.4,49.5,29.55,NE,45,8.7,8.7,93,0.06,,,-99.99,VWS V12.07,2013-10-05 16:30:00,
2013-10-05 11:35:00,51.6,49.7,29.54,NE,45,0.0,3.5,93,0.06,,,-99.99,VWS V12.07,2013-10-05 16:35:00,
2013-10-05 11:40:00,51.6,49.7,29.54,NE,45,0.0,3.5,93,0.06,,,-99.99,VWS V12.07,2013-10-05 16:40:00,
2013-10-05 11:45:00,51.6,49.7,29.55,NE,45,1.5,3.5,93,0.06,,,-99.99,VWS V12.07,2013-10-05 16:45:00,
2013-10-05 11:50:00,51.6,49.7,29.55,NE,45,1.3,2.9,93,0.06,,,-99.99,VWS V12.07,2013-10-05 16:50:00,
2013-10-05 11:55:00,51.6,49.7,29.54,ENE,68,0.0,2.9,93,0.02,,,-99.99,VWS V12.07,2013-10-05 16:55:00,
2013-10-05 12:00:00,51.6,49.7,29.55,NE,45,0.0,4.0,93,0.02,,,-99.99,VWS V12.07,2013-10-05 17:00:00,
2013-10-05 12:05:00,51.6,49.7,29.55,NE,45,2.6,2.6,93,0.00,,,-99.99,VWS V12.07,2013-10-05 17:05:00,
2013-10-05 12:10:00,51.6,49.7,29.54,NE,45,0.0,2.6,93,0.00,,,-99.99,VWS V12.07,2013-10-05 17:10:00,
2013-10-05 12:15:00,51.6,49.7,29.53,ENE,68,0.0,2.6,93,0.00,,,-99.99,VWS V12.07,2013-10-05 17:15:00,
2013-10-05 12:20:00,51.4,49.5,29.54,NE,45,0.0,0.0,93,0.00,,,-99.99,VWS V12.07,2013-10-05 17:20:00,
2013-10-05 12:25:00,51.6,49.7,29.54,NE,45,0.0,0.0,93,0.00,,,-99.99,VWS V12.07,2013-10-05 17:25:00,
2013-10-05 12:30:00,51.6,49.7,29.53,ENE,68,0.0,0.0,93,0.00,,,-99.99,VWS V12.07,2013-10-05 17:30:00,
2013-10-05 12:35:00,51.6,49.7,29.53,ENE,68,0.0,0.0,93,0.00,,,-99.99,VWS V12.07,2013-10-05 17:35:00,
2013-10-05 12:40:00,51.6,49.7,29.53,ENE,68,0.0,0.0,93,0.00,,,-99.99,VWS V12.07,2013-10-05 17:40:00,
2013-10-05 12:50:00,51.8,49.8,29.52,ENE,68,0.0,0.0,93,0.00,,,-99.99,VWS V12.07,2013-10-05 17:50:00,
2013-10-05 12:55:00,51.9,49.9,29.52,NE,45,1.5,1.5,93,0.00,,,-99.99,VWS V12.07,2013-10-05 17:55:00,
2013-10-05 13:00:00,52.1,50.1,29.52,NE,45,0.0,1.5,93,0.00,,,-99.99,VWS V12.07,2013-10-05 18:00:00,
2013-10-05 13:05:00,52.3,50.6,29.52,NE,45,0.0,0.0,94,0.00,,,-99.99,VWS V12.07,2013-10-05 18:05:00,
2013-10-05 13:10:00,52.3,50.6,29.51,NE,45,0.0,0.0,94,0.00,,,-99.99,VWS V12.07,2013-10-05 18:10:00,
2013-10-05 13:15:00,52.3,50.6,29.50,NE,45,0.0,0.0,94,0.00,,,-99.99,VWS V12.07,2013-10-05 18:15:00,
2013-10-05 13:20:00,52.5,50.8,29.50,NE,45,0.0,0.0,94,0.00,,,-99.99,VWS V12.07,2013-10-05 18:20:00,
2013-10-05 13:25:00,52.5,50.8,29.50,ENE,68,0.0,0.0,94,0.00,,,-99.99,VWS V12.07,2013-10-05 18:25:00,
2013-10-05 13:30:00,52.7,51.0,29.49,ENE,68,0.0,0.0,94,0.00,,,-99.99,VWS V12.07,2013-10-05 18:30:00,
2013-10-05 13:35:00,52.7,51.0,29.49,ENE,68,1.1,1.1,94,0.00,,,-99.99,VWS V12.07,2013-10-05 18:35:00,
2013-10-05 13:40:00,52.7,51.0,29.47,ENE,68,0.0,1.1,94,0.00,,,-99.99,VWS V12.07,2013-10-05 18:40:00,
2013-10-05 13:45:00,52.7,51.0,29.48,ENE,68,0.0,1.1,94,0.00,,,-99.99,VWS V12.07,2013-10-05 18:45:00,
2013-10-05 13:50:00,52.7,51.0,29.48,NE,45,0.0,0.0,94,0.02,,,-99.99,VWS V12.07,2013-10-05 18:50:00,
2013-10-05 13:55:00,52.8,51.1,29.47,NE,45,0.0,0.0,94,0.02,,,-99.99,VWS V12.07,2013-10-05 18:55:00,
2013-10-05 14:00:00,52.8,51.1,29.47,NE,45,0.0,0.0,94,0.02,,,-99.99,VWS V12.07,2013-10-05 19:00:00,
2013-10-05 14:05:00,53.2,51.5,29.47,NE,45,0.0,0.0,94,0.02,,,-99.99,VWS V12.07,2013-10-05 19:05:00,
2013-10-05 14:10:00,53.4,51.7,29.47,NE,45,0.0,0.0,94,0.02,,,-99.99,VWS V12.07,2013-10-05 19:10:00,
2013-10-05 14:15:00,53.4,51.7,29.48,NE,45,0.0,0.0,94,0.02,,,-99.99,VWS V12.07,2013-10-05 19:15:00,
2013-10-05 14:20:00,53.4,51.7,29.49,NE,45,0.0,0.0,94,0.02,,,-99.99,VWS V12.07,2013-10-05 19:20:00,
2013-10-05 14:25:00,53.2,51.5,29.49,NE,45,0.0,0.0,94,0.02,,,-99.99,VWS V12.07,2013-10-05 19:25:00,
2013-10-05 14:30:00,53.4,51.7,29.50,NE,45,0.0,0.0,94,0.02,,,-99.99,VWS V12.07,2013-10-05 19:30:00,
2013-10-05 14:35:00,53.4,51.7,29.49,NE,45,0.0,1.1,94,0.02,,,-99.99,VWS V12.07,2013-10-05 19:35:00,
2013-10-05 14:40:00,53.4,51.7,29.50,ENE,68,3.3,3.3,94,0.02,,,-99.99,VWS V12.07,2013-10-05 19:40:00,
2013-10-05 14:45:00,53.2,51.5,29.48,NE,45,0.0,3.3,94,0.00,,,-99.99,VWS V12.07,2013-10-05 19:45:00,
2013-10-05 14:50:00,53.2,51.5,29.48,NE,45,0.0,0.0,94,0.00,,,-99.99,VWS V12.07,2013-10-05 19:50:00,
2013-10-05 14:55:00,53.2,51.5,29.48,NE,45,0.0,0.0,94,0.00,,,-99.99,VWS V12.07,2013-10-05 19:55:00,
2013-10-05 15:00:00,53.2,51.5,29.48,NE,45,0.0,0.0,94,0.00,,,-99.99,VWS V12.07,2013-10-05 20:00:00,
2013-10-05 15:05:00,53.4,51.7,29.48,ENE,68,0.0,0.0,94,0.00,,,-99.99,VWS V12.07,2013-10-05 20:05:00,
2013-10-05 15:10:00,53.2,51.5,29.48,ENE,68,0.0,0.0,94,0.00,,,-99.99,VWS V12.07,2013-10-05 20:10:00,
2013-10-05 15:15:00,53.2,51.5,29.48,NE,45,0.0,0.0,94,0.00,,,-99.99,VWS V12.07,2013-10-05 20:15:00,
2013-10-05 15:20:00,53.2,51.5,29.48,NE,45,0.0,0.0,94,0.00,,,-99.99,VWS V12.07,2013-10-05 20:20:00,
2013-10-05 15:25:00,53.0,51.3,29.48,NE,45,0.0,0.0,94,0.00,,,-99.99,VWS V12.07,2013-10-05 20:25:00,
2013-10-05 15:30:00,53.2,51.5,29.48,NE,45,0.0,0.0,94,0.00,,,-99.99,VWS V12.07,2013-10-05 20:30:00,
2013-10-05 15:35:00,53.2,51.5,29.48,NE,45,0.0,0.0,94,0.00,,,-99.99,VWS V12.07,2013-10-05 20:35:00,
2013-10-05 15:40:00,53.2,51.5,29.48,NE,45,0.0,0.0,94,0.00,,,-99.99,VWS V12.07,2013-10-05 20:40:00,
2013-10-05 15:45:00,53.2,51.5,29.48,NE,45,0.0,0.0,94,0.00,,,-99.99,VWS V12.07,2013-10-05 20:45:00,
2013-10-05 15:50:00,53.2,51.5,29.48,NE,45,0.0,0.0,94,0.00,,,-99.99,VWS V12.07,2013-10-05 20:50:00,
2013-10-05 15:55:00,53.2,51.5,29.48,NE,45,0.0,0.0,94,0.00,,,-99.99,VWS V12.07,2013-10-05 20:55:00,
2013-10-05 16:00:00,53.0,51.3,29.48,NE,45,0.0,0.0,94,0.00,,,-99.99,VWS V12.07,2013-10-05 21:00:00,
2013-10-05 16:05:00,53.0,51.3,29.48,NE,45,0.0,2.4,94,0.00,,,-99.99,VWS V12.07,2013-10-05 21:05:00,
2013-10-05 16:10:00,52.8,51.1,29.48,NE,45,1.3,2.4,94,0.00,,,-99.99,VWS V12.07,2013-10-05 21:10:00,
2013-10-05 16:15:00,52.8,51.1,29.48,NE,45,0.0,2.4,94,0.00,,,-99.99,VWS V12.07,2013-10-05 21:15:00,
2013-10-05 16:20:00,52.8,51.1,29.48,NE,45,0.0,10.5,94,0.00,,,-99.99,VWS V12.07,2013-10-05 21:20:00,
2013-10-05 16:25:00,52.8,51.1,29.47,ENE,68,0.0,10.5,94,0.00,,,-99.99,VWS V12.07,2013-10-05 21:25:00,
2013-10-05 16:30:00,52.7,51.0,29.47,NE,45,4.4,10.5,94,0.00,,,-99.99,VWS V12.07,2013-10-05 21:30:00,
2013-10-05 16:35:00,52.5,50.8,29.48,NE,45,0.0,0.0,94,0.00,,,-99.99,VWS V12.07,2013-10-05 21:35:00,
2013-10-05 16:40:00,52.5,50.8,29.47,NE,45,0.0,5.1,94,0.00,,,-99.99,VWS V12.07,2013-10-05 21:40:00,
2013-10-05 16:45:00,52.5,50.8,29.47,NE,45,9.8,9.8,94,0.00,,,-99.99,VWS V12.07,2013-10-05 21:45:00,
2013-10-05 16:50:00,52.5,50.8,29.47,ENE,68,2.0,2.0,94,0.00,,,-99.99,VWS V12.07,2013-10-05 21:50:00,
2013-10-05 16:55:00,52.3,50.6,29.47,NE,45,0.0,2.0,94,0.00,,,-99.99,VWS V12.07,2013-10-05 21:55:00,
2013-10-05 17:00:00,52.3,50.3,29.47,NE,45,0.0,2.2,93,0.00,,,-99.99,VWS V12.07,2013-10-05 22:00:00,
2013-10-05 17:05:00,52.1,50.1,29.48,NE,45,0.8,0.8,93,0.00,,,-99.99,VWS V12.07,2013-10-05 22:05:00,
2013-10-05 17:10:00,52.1,50.1,29.48,NE,45,0.0,0.8,93,0.00,,,-99.99,VWS V12.07,2013-10-05 22:10:00,
2013-10-05 17:15:00,51.9,49.9,29.47,NE,45,0.0,0.8,93,0.00,,,-99.99,VWS V12.07,2013-10-05 22:15:00,
2013-10-05 17:20:00,51.8,49.8,29.48,NE,45,0.0,0.0,93,0.00,,,-99.99,VWS V12.07,2013-10-05 22:20:00,
2013-10-05 17:25:00,51.8,49.8,29.48,ENE,68,0.0,0.0,93,0.00,,,-99.99,VWS V12.07,2013-10-05 22:25:00,
2013-10-05 17:30:00,51.6,49.7,29.48,NE,45,0.0,0.0,93,0.00,,,-99.99,VWS V12.07,2013-10-05 22:30:00,
2013-10-05 17:35:00,51.6,49.7,29.49,ENE,68,0.0,3.8,93,0.00,,,-99.99,VWS V12.07,2013-10-05 22:35:00,
2013-10-05 17:40:00,51.6,49.7,29.49,NE,45,2.4,3.8,93,0.00,,,-99.99,VWS V12.07,2013-10-05 22:40:00,
2013-10-05 17:45:00,51.6,49.7,29.49,NE,45,0.6,3.8,93,0.00,,,-99.99,VWS V12.07,2013-10-05 22:45:00,
2013-10-05 17:50:00,51.6,49.7,29.48,NE,45,0.0,0.0,93,0.00,,,-99.99,VWS V12.07,2013-10-05 22:50:00,
2013-10-05 17:55:00,51.4,49.5,29.48,NE,45,3.3,3.3,93,0.00,,,-99.99,VWS V12.07,2013-10-05 22:55:00,
2013-10-05 18:00:00,51.4,49.5,29.47,NE,45,0.0,3.3,93,0.00,,,-99.99,VWS V12.07,2013-10-05 23:00:00,
2013-10-05 18:05:00,51.4,49.5,29.47,ENE,68,0.0,10.0,93,0.00,,,-99.99,VWS V12.07,2013-10-05 23:05:00,
2013-10-05 18:10:00,51.4,49.5,29.48,ENE,68,0.0,10.0,93,0.00,,,-99.99,VWS V12.07,2013-10-05 23:10:00,
2013-10-05 18:15:00,51.2,49.2,29.47,ENE,68,0.0,10.0,93,0.00,,,-99.99,VWS V12.07,2013-10-05 23:15:00,
2013-10-05 18:20:00,51.2,49.2,29.47,NE,45,0.0,5.8,93,0.00,,,-99.99,VWS V12.07,2013-10-05 23:20:00,
2013-10-05 18:25:00,51.2,49.2,29.47,NE,45,5.1,5.8,93,0.00,,,-99.99,VWS V12.07,2013-10-05 23:25:00,
2013-10-05 18:30:00,51.0,49.0,29.47,ENE,68,0.0,5.8,93,0.00,,,-99.99,VWS V12.07,2013-10-05 23:30:00,
2013-10-05 18:35:00,51.0,49.0,29.47,ENE,68,0.0,0.0,93,0.00,,,-99.99,VWS V12.07,2013-10-05 23:35:00,
2013-10-05 18:40:00,51.0,49.0,29.47,NE,45,0.0,0.0,93,0.00,,,-99.99,VWS V12.07,2013-10-05 23:40:00,
2013-10-05 18:45:00,51.0,49.0,29.46,NE,45,0.0,0.0,93,0.00,,,-99.99,VWS V12.07,2013-10-05 23:45:00,
2013-10-05 18:50:00,51.0,49.0,29.46,ENE,68,0.0,0.6,93,0.00,,,-99.99,VWS V12.07,2013-10-05 23:50:00,
2013-10-05 18:55:00,50.9,49.0,29.46,ENE,68,0.0,0.6,93,0.00,,,-99.99,VWS V12.07,2013-10-05 23:55:00,
2013-10-05 19:00:00,50.9,49.0,29.46,NE,45,0.0,0.6,93,0.00,,,-99.99,VWS V12.07,2013-10-06 00:00:00,
2013-10-05 19:05:00,50.9,49.0,29.46,NE,45,0.0,0.0,93,0.00,,,-99.99,VWS V12.07,2013-10-06 00:05:00,
2013-10-05 19:10:00,50.7,48.8,29.46,NE,45,0.0,8.7,93,0.00,,,-99.99,VWS V12.07,2013-10-06 00:10:00,
2013-10-05 19:15:00,50.7,48.8,29.45,NE,45,0.0,8.7,93,0.00,,,-99.99,VWS V12.07,2013-10-06 00:15:00,
2013-10-05 19:20:00,50.7,48.8,29.44,ENE,68,0.0,0.0,93,0.00,,,-99.99,VWS V12.07,2013-10-06 00:20:00,
2013-10-05 19:25:00,50.7,48.8,29.44,ENE,68,0.0,0.0,93,0.00,,,-99.99,VWS V12.07,2013-10-06 00:25:00,
2013-10-05 19:30:00,50.7,48.8,29.44,ENE,68,0.0,0.0,93,0.00,,,-99.99,VWS V12.07,2013-10-06 00:30:00,
2013-10-05 19:35:00,50.7,48.8,29.44,NE,45,0.0,0.0,93,0.00,,,-99.99,VWS V12.07,2013-10-06 00:35:00,
2013-10-05 19:40:00,50.7,48.8,29.43,NE,45,3.8,3.8,93,0.00,,,-99.99,VWS V12.07,2013-10-06 00:40:00,
2013-10-05 19:45:00,50.5,48.6,29.42,NE,45,0.0,3.8,93,0.00,,,-99.99,VWS V12.07,2013-10-06 00:45:00,
2013-10-05 19:50:00,50.5,48.6,29.42,NE,45,0.0,5.5,93,0.00,,,-99.99,VWS V12.07,2013-10-06 00:50:00,
2013-10-05 19:55:00,50.5,48.6,29.42,ENE,68,0.0,5.5,93,0.00,,,-99.99,VWS V12.07,2013-10-06 00:55:00,
2013-10-05 20:00:00,50.3,48.4,29.43,ENE,68,0.0,5.5,93,0.00,,,-99.99,VWS V12.07,2013-10-06 01:00:00,
2013-10-05 20:05:00,50.3,48.4,29.43,NE,45,0.0,0.0,93,0.00,,,-99.99,VWS V12.07,2013-10-06 01:05:00,
2013-10-05 20:10:00,50.3,48.4,29.43,ENE,68,0.0,0.0,93,0.00,,,-99.99,VWS V12.07,2013-10-06 01:10:00,
2013-10-05 20:15:00,50.3,48.4,29.42,NE,45,0.0,0.0,93,0.00,,,-99.99,VWS V12.07,2013-10-06 01:15:00,
2013-10-05 20:20:00,50.1,48.2,29.42,NE,45,0.0,2.9,93,0.00,,,-99.99,VWS V12.07,2013-10-06 01:20:00,
2013-10-05 20:25:00,50.1,48.4,29.42,NE,45,0.0,2.9,94,0.00,,,-99.99,VWS V12.07,2013-10-06 01:25:00,
2013-10-05 20:30:00,50.1,48.2,29.42,NE,45,0.0,2.9,93,0.00,,,-99.99,VWS V12.07,2013-10-06 01:30:00,
2013-10-05 20:35:00,50.1,48.4,29.42,NE,45,0.0,0.4,94,0.00,,,-99.99,VWS V12.07,2013-10-06 01:35:00,
2013-10-05 20:40:00,50.1,48.4,29.42,NE,45,0.0,0.4,94,0.00,,,-99.99,VWS V12.07,2013-10-06 01:40:00,
2013-10-05 20:45:00,50.1,48.4,29.42,NE,45,0.0,0.4,94,0.00,,,-99.99,VWS V12.07,2013-10-06 01:45:00,
2013-10-05 20:50:00,50.1,48.4,29.41,ENE,68,5.1,5.1,94,0.00,,,-99.99,VWS V12.07,2013-10-06 01:50:00,
2013-10-05 20:55:00,50.1,48.4,29.41,NE,45,0.0,5.1,94,0.00,,,-99.99,VWS V12.07,2013-10-06 01:55:00,
2013-10-05 21:00:00,50.1,48.4,29.41,ENE,68,0.0,5.1,94,0.00,,,-99.99,VWS V12.07,2013-10-06 02:00:00,
2013-10-05 21:05:00,50.1,48.4,29.40,NE,45,0.0,2.2,94,0.00,,,-99.99,VWS V12.07,2013-10-06 02:05:00,
2013-10-05 21:10:00,50.1,48.4,29.40,NE,45,1.3,2.2,94,0.00,,,-99.99,VWS V12.07,2013-10-06 02:10:00,
2013-10-05 21:15:00,50.0,48.1,29.40,NE,45,0.0,2.2,93,0.00,,,-99.99,VWS V12.07,2013-10-06 02:15:00,
2013-10-05 21:20:00,49.8,47.9,29.39,NE,45,0.0,3.8,93,0.00,,,-99.99,VWS V12.07,2013-10-06 02:20:00,
2013-10-05 21:25:00,49.8,47.9,29.39,ENE,68,0.0,3.8,93,0.00,,,-99.99,VWS V12.07,2013-10-06 02:25:00,
2013-10-05 21:30:00,49.8,47.9,29.38,ENE,68,0.0,3.8,93,0.00,,,-99.99,VWS V12.07,2013-10-06 02:30:00,
2013-10-05 21:35:00,49.8,47.9,29.38,NE,45,0.0,0.0,93,0.00,,,-99.99,VWS V12.07,2013-10-06 02:35:00,
2013-10-05 21:40:00,49.8,47.9,29.37,ENE,68,0.0,0.0,93,0.00,,,-99.99,VWS V12.07,2013-10-06 02:40:00,
2013-10-05 21:45:00,49.8,47.9,29.37,ENE,68,0.0,0.0,93,0.00,,,-99.99,VWS V12.07,2013-10-06 02:45:00,
2013-10-05 21:50:00,49.8,47.9,29.37,ENE,68,0.0,0.0,93,0.00,,,-99.99,VWS V12.07,2013-10-06 02:50:00,
2013-10-05 21:55:00,49.8,47.9,29.37,NE,45,0.0,0.0,93,0.00,,,-99.99,VWS V12.07,2013-10-06 02:55:00,
2013-10-05 22:00:00,49.8,47.9,29.37,ENE,68,0.0,0.0,93,0.00,,,-99.99,VWS V12.07,2013-10-06 03:00:00,
2013-10-05 22:05:00,49.8,47.9,29.37,NE,45,3.5,3.5,93,0.00,,,-99.99,VWS V12.07,2013-10-06 03:05:00,
2013-10-05 22:10:00,49.8,47.9,29.37,NE,45,0.0,3.5,93,0.00,,,-99.99,VWS V12.07,2013-10-06 03:10:00,
2013-10-05 22:15:00,49.8,47.9,29.37,ENE,68,0.2,3.5,93,0.00,,,-99.99,VWS V12.07,2013-10-06 03:15:00,
2013-10-05 22:20:00,49.8,47.9,29.37,ENE,68,0.0,0.0,93,0.00,,,-99.99,VWS V12.07,2013-10-06 03:20:00,
2013-10-05 22:25:00,49.8,47.9,29.37,NE,45,0.0,1.7,93,0.00,,,-99.99,VWS V12.07,2013-10-06 03:25:00,
2013-10-05 22:30:00,50.0,48.3,29.37,NE,45,1.7,1.7,94,0.00,,,-99.99,VWS V12.07,2013-10-06 03:30:00,
2013-10-05 22:35:00,50.0,48.3,29.37,ENE,68,0.0,3.8,94,0.00,,,-99.99,VWS V12.07,2013-10-06 03:35:00,
2013-10-05 22:40:00,50.0,48.1,29.37,ENE,68,0.0,6.2,93,0.00,,,-99.99,VWS V12.07,2013-10-06 03:40:00,
2013-10-05 22:45:00,50.1,48.4,29.37,ENE,68,0.0,6.2,94,0.00,,,-99.99,VWS V12.07,2013-10-06 03:45:00,
2013-10-05 22:55:00,50.1,48.4,29.36,ESE,112,0.0,0.0,94,0.02,,,-99.99,VWS V12.07,2013-10-06 03:55:00,
2013-10-05 23:00:00,50.1,48.4,29.36,NE,45,0.0,0.0,94,0.04,,,-99.99,VWS V12.07,2013-10-06 04:00:00,
2013-10-05 23:05:00,50.1,48.4,29.36,ENE,68,0.0,0.0,94,0.04,,,-99.99,VWS V12.07,2013-10-06 04:05:00,
2013-10-05 23:10:00,50.1,48.4,29.36,ENE,68,0.0,0.0,94,0.06,,,-99.99,VWS V12.07,2013-10-06 04:10:00,
2013-10-05 23:15:00,50.3,48.6,29.36,ENE,68,0.0,0.0,94,0.08,,,-99.99,VWS V12.07,2013-10-06 04:15:00,
2013-10-05 23:20:00,50.3,48.6,29.34,ENE,68,0.0,0.0,94,0.08,,,-99.99,VWS V12.07,2013-10-06 04:20:00,
2013-10-05 23:25:00,50.5,48.8,29.33,ENE,68,0.0,0.0,94,0.10,,,-99.99,VWS V12.07,2013-10-06 04:25:00,
2013-10-05 23:30:00,50.5,48.8,29.33,NE,45,0.0,0.0,94,0.10,,,-99.99,VWS V12.07,2013-10-06 04:30:00,
2013-10-05 23:35:00,50.5,48.8,29.32,ENE,68,0.0,0.0,94,0.12,,,-99.99,VWS V12.07,2013-10-06 04:35:00,
2013-10-05 23:40:00,50.7,49.0,29.32,NE,45,0.0,0.0,94,0.14,,,-99.99,VWS V12.07,2013-10-06 04:40:00,
2013-10-05 23:45:00,50.7,49.0,29.32,ENE,68,2.6,2.6,94,0.14,,,-99.99,VWS V12.07,2013-10-06 04:45:00,
2013-10-05 23:50:00,50.7,49.0,29.32,NE,45,0.0,1.3,94,0.16,,,-99.99,VWS V12.07,2013-10-06 04:50:00,
2013-10-05 23:55:00,50.9,49.2,29.32,NE,45,0.0,1.3,94,0.12,,,-99.99,VWS V12.07,2013-10-06 04:55:00,